Wetterdaten: Woche 02.01.12 - 08.01.12 (KW1)
Datum Zeit Temp. A. Feuchte A. Luftdruck Regen Wind Richtung Taupunkt Windchill Windben
02.01.2012 00:00 2,1 C 82 % 1019,4 hPa 0,0 l/m 0,0 km/h N -0,7 C 2,1 C 0,8 km/h
02.01.2012 01:00 1,9 C 82 % 1019,0 hPa 0,0 l/m 0,1 km/h N -0,9 C 1,9 C 2,4 km/h
02.01.2012 02:00 1,6 C 81 % 1018,8 hPa 0,3 l/m 0,2 km/h N -1,3 C 1,6 C 3,2 km/h
02.01.2012 03:00 1,3 C 82 % 1018,2 hPa 0,0 l/m 0,3 km/h N -1,5 C 1,3 C 4,4 km/h
02.01.2012 04:00 1,0 C 82 % 1017,7 hPa 0,0 l/m 0,1 km/h N -1,8 C 1,0 C 2,8 km/h
02.01.2012 05:00 0,6 C 82 % 1017,4 hPa 0,0 l/m 0,2 km/h N -2,1 C 0,6 C 4,0 km/h
02.01.2012 06:00 0,4 C 81 % 1017,2 hPa 0,0 l/m 0,3 km/h N -2,4 C 0,4 C 4,0 km/h
02.01.2012 07:00 0,3 C 81 % 1017,2 hPa 0,0 l/m 0,5 km/h N -2,5 C 0,3 C 6,0 km/h
02.01.2012 08:00 0,2 C 81 % 1017,3 hPa 0,0 l/m 0,3 km/h N -2,6 C 0,2 C 4,8 km/h
02.01.2012 09:00 0,5 C 81 % 1016,8 hPa 0,0 l/m 0,4 km/h N -2,4 C 0,5 C 5,6 km/h
02.01.2012 10:00 0,7 C 81 % 1016,8 hPa 0,0 l/m 0,4 km/h N -2,2 C 0,7 C 4,8 km/h
02.01.2012 11:00 1,0 C 80 % 1016,0 hPa 0,0 l/m 1,1 km/h S -2,0 C 1,0 C 7,2 km/h
02.01.2012 12:00 1,3 C 80 % 1015,2 hPa 0,0 l/m 0,9 km/h S -1,7 C 1,3 C 5,6 km/h
02.01.2012 13:00 1,5 C 80 % 1014,8 hPa 0,0 l/m 0,5 km/h S-SO -1,6 C 1,5 C 5,2 km/h
02.01.2012 14:00 1,7 C 80 % 1014,7 hPa 0,0 l/m 0,8 km/h N -1,4 C 1,7 C 6,4 km/h
02.01.2012 15:00 1,8 C 80 % 1014,7 hPa 0,0 l/m 0,5 km/h N -1,3 C 1,8 C 4,4 km/h
02.01.2012 16:00 1,8 C 80 % 1014,7 hPa 0,0 l/m 0,1 km/h N -1,3 C 1,8 C 2,4 km/h
02.01.2012 17:00 2,0 C 80 % 1015,2 hPa 0,0 l/m 0,6 km/h S-SW -1,1 C 2,0 C 4,8 km/h
02.01.2012 18:00 2,1 C 80 % 1015,5 hPa 0,0 l/m 0,2 km/h N -1,0 C 2,1 C 3,6 km/h
02.01.2012 19:00 2,3 C 80 % 1016,1 hPa 0,0 l/m 0,1 km/h N -0,8 C 2,3 C 2,4 km/h
02.01.2012 20:00 2,5 C 80 % 1016,4 hPa 0,5 l/m 0,0 km/h N -0,6 C 2,5 C 0,0 km/h
02.01.2012 21:00 2,7 C 80 % 1017,0 hPa 0,0 l/m 0,0 km/h N -0,4 C 2,7 C 0,4 km/h
02.01.2012 22:00 4,4 C 78 % 1017,1 hPa 0,3 l/m 3,5 km/h W 0,9 C 3,9 C 13,6 km/h
02.01.2012 23:00 7,8 C 81 % 1016,9 hPa 0,0 l/m 9,5 km/h W-NW 4,6 C 5,4 C 28,6 km/h
03.01.2012 00:00 8,3 C 83 % 1017,7 hPa 0,3 l/m 12,0 km/h W 5,5 C 4,6 C 33,0 km/h
03.01.2012 01:00 8,1 C 81 % 1018,8 hPa 0,0 l/m 11,4 km/h W-NW 5,0 C 4,7 C 29,0 km/h
03.01.2012 02:00 7,8 C 81 % 1019,8 hPa 0,0 l/m 9,1 km/h NW 4,6 C 5,7 C 24,1 km/h
03.01.2012 03:00 7,4 C 82 % 1021,0 hPa 0,3 l/m 8,1 km/h NW 4,5 C 6,0 C 21,7 km/h
03.01.2012 04:00 6,9 C 83 % 1021,9 hPa 0,0 l/m 6,2 km/h NO 4,3 C 6,8 C 18,5 km/h
03.01.2012 05:00 7,1 C 82 % 1022,7 hPa 0,0 l/m 6,9 km/h SW 4,1 C 6,4 C 20,5 km/h
03.01.2012 06:00 7,0 C 81 % 1023,3 hPa 0,0 l/m 5,1 km/h NW 3,9 C 6,9 C 17,3 km/h
03.01.2012 07:00 7,1 C 79 % 1024,1 hPa 0,0 l/m 6,3 km/h W-NW 3,7 C 7,0 C 20,5 km/h
03.01.2012 08:00 7,0 C 78 % 1025,2 hPa 0,0 l/m 5,7 km/h W-SW 3,4 C 7,0 C 22,9 km/h
03.01.2012 09:00 7,1 C 77 % 1025,7 hPa 0,0 l/m 5,7 km/h N-NW 3,3 C 7,0 C 18,5 km/h
03.01.2012 10:00 7,3 C 77 % 1025,5 hPa 0,0 l/m 4,8 km/h NW 3,5 C 7,3 C 19,7 km/h
03.01.2012 11:00 7,9 C 69 % 1024,8 hPa 0,0 l/m 5,6 km/h S-SW 2,5 C 7,8 C 19,7 km/h
03.01.2012 12:00 8,6 C 63 % 1024,4 hPa 0,0 l/m 7,2 km/h W-NW 2,0 C 7,9 C 23,3 km/h
03.01.2012 13:00 8,9 C 61 % 1023,9 hPa 0,0 l/m 3,8 km/h W-SW 1,8 C 8,9 C 12,1 km/h
03.01.2012 14:00 9,1 C 60 % 1023,4 hPa 0,0 l/m 1,5 km/h S-SO 1,8 C 9,1 C 8,4 km/h
03.01.2012 15:00 9,2 C 65 % 1023,2 hPa 0,0 l/m 3,0 km/h S 2,9 C 9,2 C 10,5 km/h
03.01.2012 16:00 8,2 C 72 % 1022,9 hPa 0,0 l/m 2,4 km/h S-SO 3,4 C 8,2 C 10,9 km/h
03.01.2012 17:00 6,3 C 75 % 1022,5 hPa 0,0 l/m 0,2 km/h N 2,2 C 6,3 C 3,2 km/h
03.01.2012 18:00 4,9 C 80 % 1021,7 hPa 0,0 l/m 0,1 km/h N 1,8 C 4,9 C 4,4 km/h
03.01.2012 19:00 3,7 C 82 % 1020,8 hPa 0,0 l/m 0,2 km/h N 0,8 C 3,7 C 3,2 km/h
03.01.2012 20:00 3,7 C 84 % 1019,9 hPa 0,0 l/m 0,5 km/h S 1,3 C 3,7 C 5,2 km/h
03.01.2012 21:00 3,7 C 84 % 1019,0 hPa 0,0 l/m 1,2 km/h S-SO 1,3 C 3,7 C 8,1 km/h
03.01.2012 22:00 2,7 C 83 % 1018,0 hPa 0,0 l/m 0,2 km/h N 0,1 C 2,7 C 4,0 km/h
03.01.2012 23:00 3,3 C 84 % 1016,8 hPa 0,0 l/m 2,3 km/h S-SO 0,9 C 3,3 C 14,1 km/h
04.01.2012 00:00 5,3 C 78 % 1016,0 hPa 0,0 l/m 2,3 km/h S 1,7 C 5,3 C 12,1 km/h
04.01.2012 01:00 4,0 C 80 % 1016,2 hPa 0,0 l/m 0,8 km/h N 0,8 C 4,0 C 4,8 km/h
04.01.2012 02:00 3,2 C 82 % 1016,0 hPa 0,0 l/m 0,4 km/h SW 0,4 C 3,2 C 3,6 km/h
04.01.2012 03:00 2,8 C 83 % 1015,5 hPa 0,0 l/m 0,1 km/h N 0,2 C 2,8 C 2,8 km/h
04.01.2012 04:00 2,5 C 84 % 1014,6 hPa 0,0 l/m 0,0 km/h N 0,1 C 2,5 C 0,4 km/h
04.01.2012 05:00 3,0 C 85 % 1013,8 hPa 0,0 l/m 0,1 km/h N 0,6 C 3,0 C 2,4 km/h
04.01.2012 06:00 3,5 C 84 % 1013,3 hPa 0,0 l/m 0,3 km/h N 1,0 C 3,5 C 2,4 km/h
04.01.2012 07:00 3,3 C 84 % 1012,8 hPa 0,0 l/m 0,1 km/h N 0,9 C 3,3 C 2,4 km/h
04.01.2012 08:00 3,3 C 85 % 1012,4 hPa 0,0 l/m 0,4 km/h N 1,0 C 3,3 C 3,6 km/h
04.01.2012 09:00 3,9 C 84 % 1012,7 hPa 0,0 l/m 0,0 km/h N 1,5 C 3,9 C 1,2 km/h
04.01.2012 10:00 5,3 C 84 % 1013,2 hPa 0,0 l/m 2,9 km/h W-SW 2,9 C 4,6 C 10,1 km/h
04.01.2012 11:00 9,1 C 74 % 1013,2 hPa 0,0 l/m 13,5 km/h W 4,7 C 4,7 C 36,2 km/h
04.01.2012 12:00 8,2 C 72 % 1013,2 hPa 0,0 l/m 15,0 km/h W-NW 3,4 C 2,9 C 38,6 km/h
04.01.2012 13:00 7,8 C 73 % 1013,5 hPa 0,0 l/m 16,5 km/h NW 3,3 C 1,9 C 39,0 km/h
04.01.2012 14:00 7,6 C 70 % 1014,8 hPa 0,0 l/m 9,4 km/h W-SW 2,4 C 5,5 C 27,0 km/h
04.01.2012 15:00 6,8 C 67 % 1016,2 hPa 0,0 l/m 6,7 km/h W-SW 1,0 C 6,3 C 22,1 km/h
04.01.2012 16:00 6,4 C 66 % 1017,3 hPa 0,0 l/m 8,8 km/h W 0,5 C 4,5 C 28,5 km/h
04.01.2012 17:00 6,2 C 67 % 1018,1 hPa 0,0 l/m 8,9 km/h W 0,6 C 4,2 C 26,6 km/h
04.01.2012 18:00 5,9 C 70 % 1018,4 hPa 0,0 l/m 7,3 km/h W-SW 0,9 C 5,0 C 22,5 km/h
04.01.2012 19:00 5,6 C 69 % 1018,8 hPa 0,0 l/m 9,4 km/h W 0,3 C 3,3 C 29,4 km/h
04.01.2012 20:00 5,3 C 69 % 1019,3 hPa 0,0 l/m 13,5 km/h W-NW 0,1 C 0,2 C 41,4 km/h
04.01.2012 21:00 5,1 C 68 % 1019,2 hPa 0,0 l/m 10,4 km/h NW -0,4 C 2,0 C 33,4 km/h
04.01.2012 22:00 5,2 C 66 % 1019,0 hPa 0,0 l/m 10,3 km/h W-NW -0,6 C 2,2 C 29,4 km/h
04.01.2012 23:00 4,8 C 66 % 1018,5 hPa 0,0 l/m 8,2 km/h W -1,0 C 3,3 C 24,5 km/h
05.01.2012 00:00 4,8 C 65 % 1017,3 hPa 0,0 l/m 6,2 km/h W -1,4 C 4,4 C 20,1 km/h
05.01.2012 01:00 4,8 C 61 % 1016,5 hPa 0,0 l/m 6,1 km/h W-SW -2,0 C 4,4 C 22,5 km/h
05.01.2012 02:00 5,2 C 59 % 1015,3 hPa 0,0 l/m 8,0 km/h S -2,3 C 3,7 C 24,1 km/h
05.01.2012 03:00 5,4 C 57 % 1013,5 hPa 0,0 l/m 4,5 km/h W-SW -2,5 C 4,9 C 17,7 km/h
05.01.2012 04:00 5,1 C 53 % 1011,6 hPa 0,0 l/m 6,0 km/h S-SO -3,7 C 4,7 C 20,9 km/h
05.01.2012 05:00 5,1 C 52 % 1009,8 hPa 0,0 l/m 2,4 km/h S-SO -4,0 C 5,1 C 11,7 km/h
05.01.2012 06:00 5,2 C 51 % 1007,7 hPa 0,0 l/m 3,9 km/h SO -4,1 C 5,2 C 15,7 km/h
05.01.2012 07:00 4,9 C 50 % 1006,2 hPa 0,0 l/m 1,9 km/h S-SO -4,6 C 4,9 C 11,3 km/h
05.01.2012 08:00 5,9 C 47 % 1004,2 hPa 0,0 l/m 3,0 km/h S-SO -4,4 C 5,9 C 13,3 km/h
05.01.2012 09:00 6,3 C 47 % 1002,2 hPa 0,0 l/m 7,2 km/h S-SO -4,4 C 5,3 C 23,7 km/h
05.01.2012 10:00 6,1 C 51 % 1000,3 hPa 0,0 l/m 7,8 km/h S-SO -3,3 C 4,9 C 22,9 km/h
05.01.2012 11:00 6,2 C 52 % 998,0 hPa 0,0 l/m 4,0 km/h S-SO -2,9 C 6,2 C 15,7 km/h
05.01.2012 12:00 6,4 C 57 % 995,6 hPa 0,0 l/m 5,3 km/h S-SO -1,4 C 6,4 C 19,3 km/h
05.01.2012 13:00 6,7 C 63 % 993,6 hPa 0,0 l/m 2,9 km/h S 0,1 C 6,7 C 12,5 km/h
05.01.2012 14:00 7,7 C 71 % 991,2 hPa 0,0 l/m 4,8 km/h S 2,8 C 7,6 C 19,3 km/h
05.01.2012 15:00 8,1 C 69 % 989,7 hPa 0,0 l/m 3,2 km/h S 2,8 C 8,1 C 13,3 km/h
05.01.2012 16:00 8,6 C 69 % 988,4 hPa 0,3 l/m 7,2 km/h S-SO 3,1 C 7,9 C 23,7 km/h
05.01.2012 17:00 8,1 C 73 % 987,1 hPa 0,0 l/m 9,1 km/h NW 3,6 C 6,1 C 28,2 km/h
05.01.2012 18:00 7,5 C 77 % 988,7 hPa 0,0 l/m 8,3 km/h W-NW 3,8 C 6,1 C 25,0 km/h
05.01.2012 19:00 6,9 C 74 % 990,8 hPa 0,0 l/m 12,3 km/h W-SW 2,6 C 3,2 C 31,4 km/h
05.01.2012 20:00 5,9 C 71 % 991,5 hPa 0,0 l/m 17,5 km/h W-NW 1,1 C -1,0 C 37,8 km/h
05.01.2012 21:00 5,7 C 70 % 992,2 hPa 0,0 l/m 16,2 km/h W 0,7 C -0,6 C 36,6 km/h
05.01.2012 22:00 5,7 C 69 % 992,2 hPa 0,0 l/m 14,7 km/h SW 0,4 C 0,1 C 34,2 km/h
05.01.2012 23:00 5,5 C 69 % 990,8 hPa 0,0 l/m 18,4 km/h W 0,3 C -1,8 C 45,1 km/h
06.01.2012 00:00 5,4 C 70 % 990,5 hPa 0,0 l/m 19,9 km/h NW 0,3 C -2,6 C 43,5 km/h
06.01.2012 01:00 5,3 C 71 % 991,0 hPa 0,0 l/m 16,5 km/h W 0,4 C -1,3 C 39,4 km/h
06.01.2012 02:00 4,9 C 73 % 991,0 hPa 0,0 l/m 19,5 km/h NW 0,4 C -3,2 C 43,9 km/h
06.01.2012 03:00 4,8 C 70 % 991,8 hPa 0,0 l/m 18,3 km/h NW -0,3 C -2,8 C 39,4 km/h
06.01.2012 04:00 4,3 C 67 % 993,2 hPa 0,0 l/m 16,3 km/h W -1,3 C -2,3 C 41,1 km/h
06.01.2012 05:00 4,4 C 65 % 994,7 hPa 0,0 l/m 17,6 km/h W-NW -1,6 C -2,9 C 38,2 km/h
06.01.2012 06:00 4,6 C 65 % 996,1 hPa 0,0 l/m 17,5 km/h N-NW -1,5 C -2,5 C 38,2 km/h
06.01.2012 07:00 4,4 C 67 % 997,8 hPa 0,0 l/m 19,3 km/h NW -1,2 C -3,7 C 41,4 km/h
06.01.2012 08:00 4,0 C 69 % 999,3 hPa 0,0 l/m 20,9 km/h W-NW -1,1 C -4,8 C 42,2 km/h
06.01.2012 09:00 4,1 C 70 % 1000,1 hPa 0,0 l/m 18,7 km/h W-NW -0,8 C -3,8 C 36,2 km/h
06.01.2012 10:00 4,7 C 68 % 1001,0 hPa 0,0 l/m 19,5 km/h NW -0,7 C -3,4 C 45,5 km/h
06.01.2012 11:00 5,2 C 67 % 1002,0 hPa 0,0 l/m 17,5 km/h NW -0,4 C -1,9 C 39,8 km/h
06.01.2012 12:00 5,6 C 67 % 1003,0 hPa 0,0 l/m 16,8 km/h W-NW -0,0 C -1,0 C 42,3 km/h
06.01.2012 13:00 6,0 C 66 % 1004,0 hPa 0,0 l/m 16,6 km/h SW 0,1 C -0,5 C 36,2 km/h
06.01.2012 14:00 5,8 C 67 % 1005,4 hPa 0,0 l/m 15,3 km/h NW 0,1 C 0,0 C 36,2 km/h
06.01.2012 15:00 5,2 C 61 % 1006,8 hPa 0,0 l/m 10,5 km/h NW -1,8 C 2,1 C 29,8 km/h
06.01.2012 16:00 5,1 C 54 % 1008,3 hPa 0,0 l/m 16,6 km/h NW -3,3 C -1,5 C 37,8 km/h
06.01.2012 17:00 4,8 C 54 % 1010,5 hPa 0,0 l/m 15,1 km/h W-NW -3,9 C -1,2 C 33,8 km/h
06.01.2012 18:00 4,4 C 55 % 1012,1 hPa 0,0 l/m 15,7 km/h N-NW -3,8 C -2,0 C 35,8 km/h
06.01.2012 19:00 3,9 C 63 % 1013,7 hPa 0,0 l/m 14,7 km/h W-SW -2,7 C -2,0 C 35,8 km/h
06.01.2012 20:00 3,4 C 68 % 1015,0 hPa 0,0 l/m 12,4 km/h NW -1,9 C -1,2 C 31,0 km/h
06.01.2012 21:00 3,7 C 64 % 1015,8 hPa 0,0 l/m 12,8 km/h N-NO -2,4 C -1,2 C 33,0 km/h
06.01.2012 22:00 4,1 C 63 % 1016,3 hPa 0,0 l/m 12,8 km/h NW -2,5 C -0,8 C 33,0 km/h
06.01.2012 23:00 3,9 C 65 % 1016,8 hPa 0,0 l/m 13,0 km/h N-NW -2,0 C -1,0 C 31,4 km/h
07.01.2012 00:00 3,5 C 65 % 1017,3 hPa 0,0 l/m 12,9 km/h NW -2,5 C -1,5 C 33,8 km/h
07.01.2012 01:00 3,2 C 68 % 1018,3 hPa 0,0 l/m 8,5 km/h NW -2,2 C 1,3 C 25,4 km/h
07.01.2012 02:00 3,3 C 70 % 1018,8 hPa 0,0 l/m 8,2 km/h NW -1,8 C 1,6 C 22,1 km/h
07.01.2012 03:00 3,1 C 71 % 1018,6 hPa 0,0 l/m 7,5 km/h NW -1,7 C 1,9 C 20,5 km/h
07.01.2012 04:00 2,9 C 73 % 1018,4 hPa 0,0 l/m 5,5 km/h NW -1,5 C 2,5 C 16,1 km/h
07.01.2012 05:00 3,2 C 74 % 1018,3 hPa 0,0 l/m 8,1 km/h N -1,0 C 1,7 C 21,7 km/h
07.01.2012 06:00 3,4 C 73 % 1018,7 hPa 0,0 l/m 7,3 km/h NW -0,9 C 2,5 C 22,9 km/h
07.01.2012 07:00 3,6 C 73 % 1019,0 hPa 0,0 l/m 6,3 km/h W-NW -0,9 C 2,8 C 19,3 km/h
07.01.2012 08:00 3,7 C 75 % 1019,1 hPa 0,0 l/m 7,3 km/h NW -0,4 C 2,7 C 22,5 km/h
07.01.2012 09:00 4,3 C 73 % 1018,9 hPa 0,0 l/m 9,9 km/h W-NW -0,0 C 1,4 C 28,1 km/h
07.01.2012 10:00 4,7 C 71 % 1018,3 hPa 0,0 l/m 11,3 km/h W-NW -0,1 C 0,8 C 35,4 km/h
07.01.2012 11:00 5,4 C 63 % 1017,5 hPa 0,0 l/m 10,9 km/h NW -1,0 C 1,9 C 30,6 km/h
07.01.2012 12:00 5,7 C 59 % 1016,9 hPa 0,0 l/m 9,7 km/h NW -1,6 C 3,1 C 29,8 km/h
07.01.2012 13:00 5,4 C 61 % 1015,9 hPa 0,0 l/m 7,9 km/h W -1,5 C 4,1 C 24,9 km/h
07.01.2012 14:00 5,0 C 67 % 1015,4 hPa 0,0 l/m 7,5 km/h W-NW -0,7 C 3,8 C 24,5 km/h
07.01.2012 15:00 4,3 C 74 % 1015,0 hPa 0,3 l/m 1,8 km/h W-SW 0,1 C 4,3 C 9,7 km/h
07.01.2012 16:00 3,9 C 78 % 1014,0 hPa 0,0 l/m 2,1 km/h SW 0,4 C 3,9 C 12,1 km/h
07.01.2012 17:00 4,5 C 76 % 1013,0 hPa 0,3 l/m 9,4 km/h W 0,6 C 2,0 C 29,8 km/h
07.01.2012 18:00 4,1 C 80 % 1012,6 hPa 2,6 l/m 8,5 km/h W 1,0 C 2,3 C 29,3 km/h
07.01.2012 19:00 3,4 C 84 % 1012,0 hPa 3,1 l/m 10,7 km/h W-NW 0,9 C -0,2 C 28,6 km/h
07.01.2012 20:00 4,1 C 83 % 1011,1 hPa 0,3 l/m 13,3 km/h W-SW 1,4 C -0,9 C 32,2 km/h
07.01.2012 21:00 4,7 C 80 % 1010,7 hPa 0,0 l/m 15,7 km/h W 1,4 C -1,7 C 35,8 km/h
07.01.2012 22:00 4,7 C 79 % 1011,1 hPa 0,0 l/m 11,8 km/h W 1,3 C 0,5 C 33,0 km/h
07.01.2012 23:00 4,8 C 80 % 1011,2 hPa 0,5 l/m 10,7 km/h W 1,6 C 1,4 C 29,0 km/h
08.01.2012 00:00 4,7 C 80 % 1011,2 hPa 0,5 l/m 10,4 km/h W 1,6 C 1,5 C 27,4 km/h
08.01.2012 01:00 4,7 C 81 % 1011,4 hPa 0,5 l/m 10,7 km/h W 1,7 C 1,2 C 27,8 km/h
08.01.2012 02:00 4,6 C 79 % 1011,7 hPa 0,0 l/m 10,4 km/h NW 1,2 C 1,3 C 27,8 km/h
08.01.2012 03:00 4,8 C 77 % 1011,9 hPa 0,0 l/m 10,1 km/h NW 1,2 C 1,8 C 27,8 km/h
08.01.2012 04:00 4,8 C 79 % 1012,4 hPa 0,3 l/m 10,9 km/h W-NW 1,5 C 1,3 C 29,8 km/h
08.01.2012 05:00 4,5 C 81 % 1013,1 hPa 0,8 l/m 10,1 km/h W-NW 1,5 C 1,5 C 26,1 km/h
08.01.2012 06:00 4,3 C 82 % 1013,4 hPa 0,3 l/m 8,1 km/h W-SW 1,4 C 2,7 C 24,5 km/h
08.01.2012 07:00 4,3 C 80 % 1013,3 hPa 0,0 l/m 13,1 km/h W-NW 1,2 C -0,7 C 33,4 km/h
08.01.2012 08:00 4,2 C 82 % 1014,2 hPa 0,8 l/m 9,0 km/h W-NW 1,3 C 2,0 C 25,0 km/h
08.01.2012 09:00 4,4 C 81 % 1014,5 hPa 0,0 l/m 9,8 km/h W-NW 1,5 C 1,7 C 26,9 km/h
08.01.2012 10:00 4,9 C 80 % 1014,4 hPa 0,0 l/m 11,6 km/h W-NW 1,6 C 0,8 C 29,4 km/h
08.01.2012 11:00 5,1 C 78 % 1014,5 hPa 0,3 l/m 9,6 km/h NW 1,7 C 2,6 C 27,3 km/h
08.01.2012 12:00 5,2 C 79 % 1014,6 hPa 0,3 l/m 9,4 km/h W 1,8 C 2,7 C 23,7 km/h
08.01.2012 13:00 4,4 C 83 % 1014,7 hPa 1,0 l/m 6,5 km/h NW 1,7 C 3,6 C 19,3 km/h
08.01.2012 14:00 4,4 C 83 % 1014,6 hPa 0,3 l/m 6,0 km/h W 1,8 C 4,2 C 18,9 km/h
08.01.2012 15:00 4,4 C 80 % 1014,9 hPa 0,0 l/m 3,2 km/h W-SW 1,2 C 4,4 C 12,5 km/h
08.01.2012 16:00 4,1 C 79 % 1015,2 hPa 0,0 l/m 4,3 km/h W-NW 0,7 C 4,1 C 14,9 km/h
08.01.2012 17:00 4,2 C 79 % 1015,5 hPa 0,0 l/m 5,7 km/h W 0,8 C 4,2 C 19,3 km/h
08.01.2012 18:00 4,3 C 77 % 1016,0 hPa 0,0 l/m 7,9 km/h W 0,6 C 2,9 C 24,1 km/h
08.01.2012 19:00 4,0 C 79 % 1016,4 hPa 0,0 l/m 6,2 km/h W-SW 0,7 C 3,7 C 19,3 km/h
08.01.2012 20:00 3,9 C 80 % 1016,8 hPa 0,0 l/m 5,9 km/h NW 0,8 C 3,8 C 20,9 km/h
08.01.2012 21:00 4,1 C 80 % 1017,2 hPa 0,3 l/m 6,9 km/h NW 0,9 C 3,5 C 20,1 km/h
08.01.2012 22:00 4,1 C 81 % 1017,4 hPa 0,0 l/m 7,7 km/h NW 1,2 C 2,9 C 19,7 km/h
08.01.2012 23:00 4,0 C 81 % 1017,5 hPa 0,0 l/m 6,9 km/h W-NW 1,1 C 3,4 C 20,9 km/h
Min-Datum _ 02.01.12 05.01.12 05.01.12 - 02.01.12 - 05.01.12 06.01.12 02.01.12
_ Min-Zeit 07:45 09:15 17:30 - 00:15 - 07:45 08:45 00:15
Minimum _ 0,2 C 45 % 987,0 hPa - 0,0 km/h - -5,1 C -5,5 C 0,0 km/h
Max-Datum _ 04.01.12 03.01.12 03.01.12 07.01.12 06.01.12 - 03.01.12 03.01.12 05.01.12
_ Max-Zeit 11:15 00:00 09:45 19:30 08:45 - 00:00 15:00 23:45
Maximum _ 9,4 C 85 % 1025,8 hPa 3,1 l/m 22,3 km/h
W-NW
- 5,7 C 9,3 C 53,1 km/h
W
Durchschnitt _ 4,7 C 73 % 1012,5 hPa #14,0 l/m 7,5 km/h NW 0,2 C 2,6 C 21,3 km/h